Time;durP1;ratioP1;P1;durP2;ratioP2;P2;SDS_P1;SDS_P2;PMS_P1;PMS_P2;Temp;Humidity;BMP_temperature;BMP_pressure;BME280_temperature;BME280_humidity;BME280_pressure;Samples;Min_cycle;Max_cycle;Signal;HPM_P1;HPM_P2
2022/12/03 00:02:09;;;;;;;50.90;20.48;;;;;;;-144.32;100.00;68061.97;10508950;28;20025;-88
2022/12/03 00:07:10;;;;;;;48.17;20.15;;;;;;;-144.32;100.00;68061.97;10506968;28;20052;-87
2022/12/03 00:12:10;;;;;;;42.08;20.70;;;;;;;-144.32;100.00;68061.97;10516130;28;20405;-89
2022/12/03 00:17:11;;;;;;;48.15;20.70;;;;;;;-144.32;100.00;68061.97;10533349;28;20050;-78
2022/12/03 00:22:11;;;;;;;50.92;21.20;;;;;;;-144.32;100.00;68061.97;10523452;28;20052;-81
2022/12/03 00:27:12;;;;;;;49.40;21.58;;;;;;;-144.32;100.00;68061.97;10604543;22;20033;-79
2022/12/03 00:32:13;;;;;;;53.85;20.60;;;;;;;-144.32;100.00;68061.97;10523271;28;20036;-77
2022/12/03 00:37:13;;;;;;;46.20;20.15;;;;;;;-144.32;100.00;68061.97;10535730;28;20031;-79
2022/12/03 00:42:14;;;;;;;53.03;20.83;;;;;;;-144.32;100.00;68061.97;10536247;28;20036;-80
2022/12/03 00:47:14;;;;;;;50.05;20.48;;;;;;;-144.32;100.00;68061.97;10504759;28;20044;-87
2022/12/03 00:52:15;;;;;;;49.47;21.58;;;;;;;-144.32;100.00;68061.97;10513108;28;20076;-82
2022/12/03 00:57:16;;;;;;;44.50;19.77;;;;;;;-144.32;100.00;68061.97;10531919;28;20063;-83
2022/12/03 01:02:17;;;;;;;46.45;20.73;;;;;;;-144.32;100.00;68061.97;10521408;28;20051;-84
2022/12/03 01:07:17;;;;;;;49.83;21.83;;;;;;;-144.32;100.00;68061.97;10525524;28;20044;-80
2022/12/03 01:12:19;;;;;;;45.13;20.70;;;;;;;-144.32;100.00;68061.97;10504622;28;20159;-86
2022/12/03 01:17:20;;;;;;;48.28;21.10;;;;;;;-144.32;100.00;68061.97;10508119;28;20066;-85
2022/12/03 01:22:22;;;;;;;45.05;20.60;;;;;;;-144.32;100.00;68061.97;10489537;28;20041;-82
2022/12/03 01:27:23;;;;;;;47.33;20.20;;;;;;;-144.32;100.00;68061.97;10515571;28;20052;-88
2022/12/03 01:32:24;;;;;;;47.20;20.00;;;;;;;-144.32;100.00;68061.97;10491304;28;20812;-88
2022/12/03 01:37:25;;;;;;;46.50;20.52;;;;;;;-144.32;100.00;68061.97;10485341;28;20045;-87
2022/12/03 01:42:30;;;;;;;51.03;20.52;;;;;;;-144.32;100.00;68061.97;10510377;28;20056;-89
2022/12/03 01:47:35;;;;;;;46.55;19.95;;;;;;;-144.32;100.00;68061.97;10481840;28;20044;-84
2022/12/03 01:52:38;;;;;;;52.88;20.33;;;;;;;-144.32;100.00;68061.97;10479601;28;20044;-88
2022/12/03 01:57:54;;;;;;;49.67;20.60;;;;;;;-144.32;100.00;68061.97;10492731;28;20373;-86
2022/12/03 02:03:01;;;;;;;46.67;20.33;;;;;;;-144.32;100.00;68061.97;10490563;28;20790;-89
2022/12/03 02:08:26;;;;;;;41.72;19.05;;;;;;;-144.32;100.00;68061.97;10477272;28;20059;-85
2022/12/03 02:13:28;;;;;;;48.90;21.02;;;;;;;-144.32;100.00;68061.97;10472945;28;20088;-81
2022/12/03 02:18:31;;;;;;;50.20;21.33;;;;;;;-144.32;100.00;68061.97;10531423;28;20041;-80
2022/12/03 02:23:34;;;;;;;43.80;18.90;;;;;;;-144.32;100.00;68061.97;10534591;28;20039;-80
2022/12/03 02:28:36;;;;;;;47.22;20.35;;;;;;;-144.32;100.00;68061.97;10529533;28;20055;-80
2022/12/03 02:33:39;;;;;;;43.47;19.30;;;;;;;-144.32;100.00;68061.97;10516236;28;20051;-80
2022/12/03 02:38:43;;;;;;;46.90;20.05;;;;;;;-144.32;100.00;68061.97;10536303;28;20017;-81
2022/12/03 02:43:45;;;;;;;47.03;19.80;;;;;;;-144.32;100.00;68061.97;10505364;28;20758;-91
2022/12/03 02:48:45;;;;;;;46.47;19.83;;;;;;;-144.32;100.00;68061.97;10492289;28;20033;-85
2022/12/03 02:53:48;;;;;;;50.55;20.65;;;;;;;-144.32;100.00;68061.97;10485326;28;20048;-86
2022/12/03 02:58:52;;;;;;;;;;;;;;;-144.32;100.00;68061.97;10482236;28;20507;-85
2022/12/03 03:03:53;;;;;;;45.83;19.38;;;;;;;-144.32;100.00;68061.97;10499452;28;19923;-79
2022/12/03 03:08:57;;;;;;;48.15;21.20;;;;;;;-144.32;100.00;68061.97;10507649;28;20123;-86
2022/12/03 03:14:01;;;;;;;48.05;20.25;;;;;;;-144.32;100.00;68061.97;10519723;28;20062;-78
2022/12/03 03:19:02;;;;;;;44.33;21.27;;;;;;;-144.32;100.00;68061.97;10531370;28;20067;-80
2022/12/03 03:24:04;;;;;;;48.78;20.50;;;;;;;-144.32;100.00;68061.97;10531319;28;20071;-82
2022/12/03 03:29:04;;;;;;;44.75;20.20;;;;;;;-144.32;100.00;68061.97;10548159;22;20035;-80
2022/12/03 03:34:07;;;;;;;48.05;20.35;;;;;;;-144.32;100.00;68061.97;10538106;28;20097;-77
2022/12/03 03:39:07;;;;;;;48.25;21.77;;;;;;;-144.32;100.00;68061.97;10510796;28;20036;-87
2022/12/03 03:44:09;;;;;;;48.08;20.42;;;;;;;-144.32;100.00;68061.97;10483780;28;20041;-85
2022/12/03 03:49:09;;;;;;;46.50;19.98;;;;;;;-144.32;100.00;68061.97;10494997;28;20055;-82
2022/12/03 03:54:10;;;;;;;46.50;21.15;;;;;;;-144.32;100.00;68061.97;10504749;28;20064;-86
2022/12/03 03:59:12;;;;;;;47.40;21.10;;;;;;;-144.32;100.00;68061.97;10472892;28;20041;-83
2022/12/03 04:04:22;;;;;;;46.45;21.05;;;;;;;-144.32;100.00;68061.97;10511967;28;20047;-84
2022/12/03 04:09:23;;;;;;;47.50;20.70;;;;;;;-144.32;100.00;68061.97;10510012;28;20092;-77
2022/12/03 04:14:25;;;;;;;61.58;21.20;;;;;;;-144.32;100.00;68061.97;10740869;22;20048;-86
2022/12/03 04:19:25;;;;;;;44.72;20.85;;;;;;;-144.32;100.00;68061.97;10486188;28;20036;-83
2022/12/03 04:24:26;;;;;;;44.72;20.25;;;;;;;-144.32;100.00;68061.97;10487155;28;20044;-84
2022/12/03 04:29:44;;;;;;;42.72;19.42;;;;;;;-144.32;100.00;68061.97;10478182;28;20051;-85
2022/12/03 04:40:59;;;;;;;44.97;19.75;;;;;;;-144.32;100.00;68061.97;10531015;28;20051;-79
2022/12/03 04:45:26;;;;;;;52.75;22.23;;;;;;;-144.32;100.00;68061.97;10519508;28;20048;-80
2022/12/03 04:50:27;;;;;;;52.03;21.92;;;;;;;-144.32;100.00;68061.97;10509429;28;20045;-83
2022/12/03 04:55:28;;;;;;;50.90;22.35;;;;;;;-144.32;100.00;68061.97;10502711;28;20045;-82
2022/12/03 05:00:30;;;;;;;44.50;20.65;;;;;;;-144.32;100.00;68061.97;10485114;28;20045;-80
2022/12/03 05:05:31;;;;;;;46.40;20.38;;;;;;;-144.32;100.00;68061.97;10519261;28;20039;-81
2022/12/03 05:10:34;;;;;;;40.95;19.80;;;;;;;-144.32;100.00;68061.97;10527828;28;20034;-79
2022/12/03 05:15:36;;;;;;;45.77;20.20;;;;;;;-144.32;100.00;68061.97;10527038;28;20059;-78
2022/12/03 05:20:42;;;;;;;48.58;21.98;;;;;;;-144.32;100.00;68061.97;10521033;28;20096;-79
2022/12/03 05:25:44;;;;;;;48.50;21.52;;;;;;;-144.32;100.00;68061.97;10525045;28;20037;-81
2022/12/03 05:30:44;;;;;;;47.85;20.98;;;;;;;-144.32;100.00;68061.97;10517535;28;20074;-78
2022/12/03 05:35:45;;;;;;;42.22;19.48;;;;;;;-144.32;100.00;68061.97;10525143;28;20033;-79
2022/12/03 05:40:46;;;;;;;46.80;21.80;;;;;;;-144.32;100.00;68061.97;10521965;28;20035;-78
2022/12/03 05:45:47;;;;;;;46.45;22.27;;;;;;;-144.32;100.00;68061.97;10524452;28;20153;-79
2022/12/03 05:50:47;;;;;;;46.28;19.95;;;;;;;-144.32;100.00;68061.97;10525011;28;20051;-80
2022/12/03 05:55:48;;;;;;;42.88;20.50;;;;;;;-144.32;100.00;68061.97;10520420;28;20044;-85
2022/12/03 06:00:50;;;;;;;46.80;20.33;;;;;;;-144.32;100.00;68061.97;10480356;28;20120;-80
2022/12/03 06:05:51;;;;;;;43.72;18.85;;;;;;;-144.32;100.00;68061.97;10492376;28;20485;-84
2022/12/03 06:10:51;;;;;;;46.95;20.55;;;;;;;-144.32;100.00;68061.97;10477031;28;20091;-86
2022/12/03 06:15:55;;;;;;;40.08;19.80;;;;;;;-144.32;100.00;68061.97;10990137;22;20060;-88
2022/12/03 06:20:56;;;;;;;;;;;;;;;-144.32;100.00;68061.97;10472931;28;20416;-82
2022/12/03 06:25:57;;;;;;;45.08;20.05;;;;;;;-144.32;100.00;68061.97;10481807;28;19925;-85
2022/12/03 06:30:59;;;;;;;46.47;20.30;;;;;;;-144.32;100.00;68061.97;10474654;28;20052;-86
2022/12/03 06:35:59;;;;;;;46.17;20.42;;;;;;;-144.32;100.00;68061.97;10487182;28;20101;-83
2022/12/03 06:40:59;;;;;;;50.80;20.95;;;;;;;-144.32;100.00;68061.97;10518983;28;20037;-84
2022/12/03 06:46:03;;;;;;;41.08;19.48;;;;;;;-144.32;100.00;68061.97;10541975;28;20048;-80
2022/12/03 06:51:04;;;;;;;43.20;19.88;;;;;;;-144.32;100.00;68061.97;10555514;28;20037;-81
2022/12/03 06:56:05;;;;;;;43.63;19.02;;;;;;;-144.32;100.00;68061.97;10555947;28;20037;-83
2022/12/03 07:01:05;;;;;;;43.10;19.00;;;;;;;-144.32;100.00;68061.97;10571604;28;20036;-78
2022/12/03 07:06:06;;;;;;;42.92;20.15;;;;;;;-144.32;100.00;68061.97;10572854;28;20036;-77
2022/12/03 07:11:48;;;;;;;46.40;21.00;;;;;;;-144.32;100.00;68061.97;10564048;28;20040;-85
2022/12/03 07:16:30;;;;;;;48.07;20.77;;;;;;;-144.32;100.00;68061.97;10561320;28;20047;-80
2022/12/03 07:21:30;;;;;;;47.20;20.67;;;;;;;-144.32;100.00;68061.97;10581618;28;20024;-79
2022/12/03 07:26:31;;;;;;;47.53;21.70;;;;;;;-144.32;100.00;68061.97;10557913;28;20046;-80
2022/12/03 07:31:33;;;;;;;48.65;20.50;;;;;;;-144.32;100.00;68061.97;10529359;28;20071;-84
2022/12/03 07:36:34;;;;;;;47.83;20.35;;;;;;;-144.32;100.00;68061.97;10523078;28;20048;-81
2022/12/03 07:41:35;;;;;;;45.17;20.02;;;;;;;-144.32;100.00;68061.97;10525102;28;20490;-83
2022/12/03 07:46:35;;;;;;;42.50;20.45;;;;;;;-144.32;100.00;68061.97;10544568;28;20036;-77
2022/12/03 07:57:00;;;;;;;43.47;18.95;;;;;;;-144.32;100.00;68061.97;11042989;22;20288;-78
2022/12/03 08:02:01;;;;;;;42.78;18.85;;;;;;;-144.32;100.00;68061.97;10413905;28;20061;-82
2022/12/03 08:07:01;;;;;;;40.15;18.42;;;;;;;-144.32;100.00;68061.97;10404632;28;20041;-83
2022/12/03 08:12:13;;;;;;;46.30;20.80;;;;;;;-144.32;100.00;68061.97;10575062;22;20056;-89
2022/12/03 08:17:14;;;;;;;38.92;18.63;;;;;;;-144.32;100.00;68061.97;10425820;28;20044;-82
2022/12/03 08:22:15;;;;;;;40.08;18.48;;;;;;;-144.32;100.00;68061.97;10427110;28;20041;-83
2022/12/03 08:27:19;;;;;;;41.00;18.20;;;;;;;-144.32;100.00;68061.97;10444188;28;20045;-82
2022/12/03 08:32:20;;;;;;;42.20;19.10;;;;;;;-144.32;100.00;68061.97;10446348;28;20041;-78
2022/12/03 08:37:20;;;;;;;38.78;17.98;;;;;;;-144.32;100.00;68061.97;10458260;28;20120;-78
2022/12/03 08:42:40;;;;;;;39.75;18.80;;;;;;;-144.32;100.00;68061.97;10459507;28;20029;-78
2022/12/03 08:47:48;;;;;;;38.00;17.85;;;;;;;-144.32;100.00;68061.97;10450557;28;20037;-76
2022/12/03 08:52:49;;;;;;;36.90;18.10;;;;;;;-144.32;100.00;68061.97;10457266;28;20055;-77
2022/12/03 08:57:49;;;;;;;35.13;17.98;;;;;;;-144.32;100.00;68061.97;10468410;28;21385;-78
2022/12/03 09:02:53;;;;;;;39.08;18.20;;;;;;;-144.32;100.00;68061.97;10438386;28;20041;-85
2022/12/03 09:07:54;;;;;;;40.55;18.50;;;;;;;-144.32;100.00;68061.97;10423727;28;20053;-83
2022/12/03 09:12:57;;;;;;;41.20;19.10;;;;;;;-144.32;100.00;68061.97;10438082;28;20037;-82
2022/12/03 09:17:57;;;;;;;40.45;18.98;;;;;;;-144.32;100.00;68061.97;10421342;28;20040;-82
2022/12/03 09:22:58;;;;;;;40.83;18.52;;;;;;;-144.32;100.00;68061.97;10403499;28;20525;-85
2022/12/03 09:28:01;;;;;;;34.97;17.92;;;;;;;-144.32;100.00;68061.97;10415177;28;20076;-82
2022/12/03 09:33:03;;;;;;;37.88;17.75;;;;;;;-144.32;100.00;68061.97;10392281;28;20064;-81
2022/12/03 09:38:03;;;;;;;36.22;17.58;;;;;;;-144.32;100.00;68061.97;10409654;28;20557;-82
2022/12/03 09:43:04;;;;;;;36.10;17.73;;;;;;;-144.32;100.00;68061.97;10419572;28;20041;-82
2022/12/03 09:48:06;;;;;;;33.97;17.55;;;;;;;-144.32;100.00;68061.97;10411261;28;20080;-83
2022/12/03 09:53:13;;;;;;;38.30;17.42;;;;;;;-144.32;100.00;68061.97;10416964;28;20049;-86
2022/12/03 09:58:16;;;;;;;35.38;17.42;;;;;;;-144.32;100.00;68061.97;10425881;28;20034;-83
2022/12/03 10:03:28;;;;;;;37.45;18.35;;;;;;;-144.32;100.00;68061.97;10449497;28;20060;-80
2022/12/03 10:08:29;;;;;;;39.03;17.38;;;;;;;-144.32;100.00;68061.97;10440597;28;20044;-82
2022/12/03 10:13:31;;;;;;;35.33;16.60;;;;;;;-144.32;100.00;68061.97;10425858;28;20048;-85
2022/12/03 10:18:33;;;;;;;36.78;16.77;;;;;;;-144.32;100.00;68061.97;10434159;28;20036;-84
2022/12/03 10:23:39;;;;;;;36.80;15.93;;;;;;;-144.32;100.00;68061.97;10424714;28;20061;-80
2022/12/03 10:28:45;;;;;;;32.80;16.08;;;;;;;-144.32;100.00;68061.97;10433733;28;20037;-84
2022/12/03 10:33:56;;;;;;;32.83;15.45;;;;;;;-144.32;100.00;68061.97;10442920;28;20068;-82
2022/12/03 10:39:17;;;;;;;34.05;16.08;;;;;;;-144.32;100.00;68061.97;10440746;28;20071;-81
2022/12/03 10:44:21;;;;;;;29.15;15.23;;;;;;;-144.32;100.00;68061.97;10416938;28;20045;-79
2022/12/03 10:49:22;;;;;;;33.67;16.83;;;;;;;-144.32;100.00;68061.97;10430872;28;20081;-81
2022/12/03 10:54:25;;;;;;;31.13;16.17;;;;;;;-144.32;100.00;68061.97;10449306;28;20029;-81
2022/12/03 10:59:32;;;;;;;26.88;13.07;;;;;;;-144.32;100.00;68061.97;10457931;28;20036;-79
2022/12/03 11:04:35;;;;;;;28.15;13.88;;;;;;;-144.32;100.00;68061.97;10494541;28;20521;-80
2022/12/03 11:09:44;;;;;;;30.42;14.20;;;;;;;-144.32;100.00;68061.97;10628396;22;20049;-78
2022/12/03 11:14:53;;;;;;;25.52;14.25;;;;;;;-144.32;100.00;68061.97;10458896;28;20089;-77
2022/12/03 11:20:00;;;;;;;28.55;14.63;;;;;;;-144.32;100.00;68061.97;10438232;28;20085;-83
2022/12/03 11:25:25;;;;;;;27.20;13.60;;;;;;;-144.32;100.00;68061.97;10651556;22;20062;-81
2022/12/03 11:31:10;;;;;;;26.60;13.77;;;;;;;-144.32;100.00;68061.97;10489061;28;20072;-84
2022/12/03 11:36:15;;;;;;;21.48;11.65;;;;;;;-144.32;100.00;68061.97;10470867;28;20060;-85
2022/12/03 11:41:16;;;;;;;23.40;13.13;;;;;;;-144.32;100.00;68061.97;10491558;28;20067;-84
2022/12/03 11:46:26;;;;;;;24.08;13.18;;;;;;;-144.32;100.00;68061.97;10471237;28;20537;-85
2022/12/03 11:51:29;;;;;;;25.50;13.15;;;;;;;-144.32;100.00;68061.97;10438344;28;20048;-87
2022/12/03 11:56:30;;;;;;;;;;;;;;;-144.32;100.00;68061.97;10453224;28;20235;-87
2022/12/03 12:01:33;;;;;;;23.60;12.32;;;;;;;-144.32;100.00;68061.97;10482061;28;20022;-82
2022/12/03 12:06:43;;;;;;;24.60;12.35;;;;;;;-144.32;100.00;68061.97;10483532;28;20049;-82
2022/12/03 12:11:43;;;;;;;20.80;11.00;;;;;;;-144.32;100.00;68061.97;10481763;28;20071;-85
2022/12/03 12:16:51;;;;;;;23.38;11.77;;;;;;;-144.32;100.00;68061.97;10461904;28;20079;-79
2022/12/03 12:21:52;;;;;;;23.35;12.65;;;;;;;-144.32;100.00;68061.97;10470666;28;20053;-86
2022/12/03 12:26:53;;;;;;;24.33;11.95;;;;;;;-144.32;100.00;68061.97;10448996;28;20045;-88
2022/12/03 12:32:10;;;;;;;22.98;12.15;;;;;;;-144.32;100.00;68061.97;10437615;28;20053;-84
2022/12/03 12:37:18;;;;;;;22.05;12.18;;;;;;;-144.32;100.00;68061.97;10426780;28;20054;-86
2022/12/03 12:42:33;;;;;;;19.55;11.82;;;;;;;-144.32;100.00;68061.97;10495080;22;20052;-85
2022/12/03 12:47:35;;;;;;;23.40;11.68;;;;;;;-144.32;100.00;68061.97;10441988;28;20494;-85
2022/12/03 12:53:06;;;;;;;22.38;12.25;;;;;;;-144.32;100.00;68061.97;10450377;28;20388;-84
2022/12/03 12:58:15;;;;;;;23.73;12.82;;;;;;;-144.32;100.00;68061.97;10427286;28;20152;-81
2022/12/03 13:03:19;;;;;;;21.10;10.60;;;;;;;-144.32;100.00;68061.97;10476651;28;20032;-82
2022/12/03 13:08:27;;;;;;;18.88;10.68;;;;;;;-144.32;100.00;68061.97;10460126;28;20041;-88
2022/12/03 13:13:40;;;;;;;19.65;10.55;;;;;;;-144.32;100.00;68061.97;10435221;28;20126;-87
2022/12/03 13:18:51;;;;;;;17.75;9.95;;;;;;;-144.32;100.00;68061.97;10444348;28;20043;-84
2022/12/03 13:23:54;;;;;;;18.83;10.43;;;;;;;-144.32;100.00;68061.97;10539293;28;20032;-84
2022/12/03 13:28:56;;;;;;;19.63;9.30;;;;;;;-144.32;100.00;68061.97;10532787;28;20028;-79
2022/12/03 13:33:59;;;;;;;17.00;9.63;;;;;;;-144.32;100.00;68061.97;10527449;28;20105;-81
2022/12/03 13:39:00;;;;;;;16.93;9.87;;;;;;;-144.32;100.00;68061.97;10529505;28;20059;-84
2022/12/03 13:44:01;;;;;;;15.10;8.48;;;;;;;-144.32;100.00;68061.97;10477847;28;20077;-85
2022/12/03 13:49:02;;;;;;;16.00;9.43;;;;;;;-144.32;100.00;68061.97;10478633;28;20060;-85
2022/12/03 13:54:09;;;;;;;16.73;8.63;;;;;;;-144.32;100.00;68061.97;10486057;28;20037;-86
2022/12/03 13:59:09;;;;;;;15.60;9.73;;;;;;;-144.32;100.00;68061.97;10471991;28;20098;-82
2022/12/03 14:04:10;;;;;;;15.88;9.20;;;;;;;-144.32;100.00;68061.97;10502380;28;20040;-83
2022/12/03 14:09:11;;;;;;;14.27;8.45;;;;;;;-144.32;100.00;68061.97;10508485;28;20056;-85
2022/12/03 14:14:12;;;;;;;15.80;8.65;;;;;;;-144.32;100.00;68061.97;10522582;28;20033;-80
2022/12/03 14:19:13;;;;;;;15.88;9.07;;;;;;;-144.32;100.00;68061.97;10489218;28;20099;-87
2022/12/03 14:24:13;;;;;;;15.20;8.23;;;;;;;-144.32;100.00;68061.97;10494236;28;20102;-84
2022/12/03 14:29:14;;;;;;;14.60;8.25;;;;;;;-144.32;100.00;68061.97;10487619;28;20048;-85
2022/12/03 14:34:15;;;;;;;17.23;8.95;;;;;;;-144.32;100.00;68061.97;10485688;28;20040;-83
2022/12/03 14:39:17;;;;;;;15.85;9.38;;;;;;;-144.32;100.00;68061.97;10497174;28;20051;-83
2022/12/03 14:44:20;;;;;;;13.87;8.13;;;;;;;-144.32;100.00;68061.97;10491310;28;20469;-85
2022/12/03 14:49:22;;;;;;;15.70;9.57;;;;;;;-144.32;100.00;68061.97;10499646;28;20053;-84
2022/12/03 14:54:23;;;;;;;17.73;8.77;;;;;;;-144.32;100.00;68061.97;10488642;28;20062;-86
2022/12/03 15:04:47;;;;;;;15.60;8.27;;;;;;;-144.32;100.00;68061.97;10710949;22;20109;-84
2022/12/03 15:15:12;;;;;;;16.38;9.40;;;;;;;-144.32;100.00;68061.97;10734466;22;20032;-89
2022/12/03 15:20:15;;;;;;;15.40;9.13;;;;;;;-144.32;100.00;68061.97;10517540;28;20072;-83
2022/12/03 15:25:23;;;;;;;18.50;9.45;;;;;;;-144.32;100.00;68061.97;10466875;28;20075;-82
2022/12/03 15:30:26;;;;;;;16.48;9.25;;;;;;;-144.32;100.00;68061.97;10478263;28;20048;-84
2022/12/03 15:35:28;;;;;;;17.50;10.10;;;;;;;-144.32;100.00;68061.97;10474657;28;20118;-84
2022/12/03 15:40:30;;;;;;;18.02;9.45;;;;;;;-144.32;100.00;68061.97;10506007;28;20045;-84
2022/12/03 15:45:31;;;;;;;16.02;9.30;;;;;;;-144.32;100.00;68061.97;10499552;28;20025;-82
2022/12/03 15:50:32;;;;;;;15.40;10.00;;;;;;;-144.32;100.00;68061.97;10556929;22;20039;-84
2022/12/03 15:55:33;;;;;;;14.65;9.05;;;;;;;-144.32;100.00;68061.97;10475394;28;20037;-89
2022/12/03 16:00:36;;;;;;;17.05;9.10;;;;;;;-144.32;100.00;68061.97;10452955;28;20048;-87
2022/12/03 16:05:37;;;;;;;15.88;9.05;;;;;;;-144.32;100.00;68061.97;10445248;28;20088;-84
2022/12/03 16:10:37;;;;;;;16.40;9.60;;;;;;;-144.32;100.00;68061.97;10443252;28;20045;-85
2022/12/03 16:15:38;;;;;;;16.73;9.65;;;;;;;-144.32;100.00;68061.97;10445043;28;20048;-86
2022/12/03 16:20:38;;;;;;;16.75;9.80;;;;;;;-144.32;100.00;68061.97;10471239;28;20033;-82
2022/12/03 16:25:39;;;;;;;17.80;11.05;;;;;;;-144.32;100.00;68061.97;10511957;28;20052;-83
2022/12/03 16:30:40;;;;;;;18.77;9.65;;;;;;;-144.32;100.00;68061.97;10509457;28;20128;-82
2022/12/03 16:35:40;;;;;;;18.25;11.23;;;;;;;-144.32;100.00;68061.97;10504763;28;20080;-83
2022/12/03 16:40:42;;;;;;;16.40;9.73;;;;;;;-144.32;100.00;68061.97;10495133;28;20515;-84
2022/12/03 16:50:55;;;;;;;15.73;9.75;;;;;;;-144.32;100.00;68061.97;10490439;28;20344;-81
2022/12/03 16:55:56;;;;;;;17.83;10.25;;;;;;;-144.32;100.00;68061.97;10489927;28;20044;-86
2022/12/03 17:00:57;;;;;;;20.42;10.77;;;;;;;-144.32;100.00;68061.97;10463913;28;20057;-86
2022/12/03 17:05:57;;;;;;;17.27;10.15;;;;;;;-144.32;100.00;68061.97;10493785;28;20060;-85
2022/12/03 17:10:58;;;;;;;17.63;10.63;;;;;;;-144.32;100.00;68061.97;10486978;28;20496;-84
2022/12/03 17:15:59;;;;;;;18.60;10.77;;;;;;;-144.32;100.00;68061.97;10503682;28;20045;-85
2022/12/03 17:21:00;;;;;;;20.40;11.18;;;;;;;-144.32;100.00;68061.97;10492667;28;20063;-81
2022/12/03 17:26:02;;;;;;;20.10;11.18;;;;;;;-144.32;100.00;68061.97;10481830;28;20117;-80
2022/12/03 17:31:03;;;;;;;20.38;11.63;;;;;;;-144.32;100.00;68061.97;10480758;28;20055;-83
2022/12/03 17:36:05;;;;;;;15.93;9.80;;;;;;;-144.32;100.00;68061.97;10488031;28;20052;-86
2022/12/03 17:41:06;;;;;;;18.42;10.38;;;;;;;-144.32;100.00;68061.97;10468939;28;20041;-83
2022/12/03 17:46:07;;;;;;;18.67;10.25;;;;;;;-144.32;100.00;68061.97;10467430;28;20048;-82
2022/12/03 17:51:07;;;;;;;19.83;9.98;;;;;;;-144.32;100.00;68061.97;10471883;28;20496;-83
2022/12/03 17:56:11;;;;;;;19.48;10.10;;;;;;;-144.32;100.00;68061.97;11393016;22;20036;-79
2022/12/03 18:01:13;;;;;;;19.52;11.55;;;;;;;-144.32;100.00;68061.97;10794671;22;20412;-82
2022/12/03 18:06:15;;;;;;;21.92;11.27;;;;;;;-144.32;100.00;68061.97;10435838;28;20045;-82
2022/12/03 18:11:16;;;;;;;20.98;10.38;;;;;;;-144.32;100.00;68061.97;10436976;28;20072;-83
2022/12/03 18:16:16;;;;;;;21.83;12.20;;;;;;;-144.32;100.00;68061.97;10443009;28;20068;-83
2022/12/03 18:21:17;;;;;;;21.38;11.85;;;;;;;-144.32;100.00;68061.97;10452872;28;20088;-79
2022/12/03 18:26:18;;;;;;;24.98;12.38;;;;;;;-144.32;100.00;68061.97;10448350;28;20046;-78
2022/12/03 18:31:21;;;;;;;23.67;12.30;;;;;;;-144.32;100.00;68061.97;10448114;28;20080;-81
2022/12/03 18:36:28;;;;;;;25.48;13.18;;;;;;;-144.32;100.00;68061.97;10427059;28;20050;-82
2022/12/03 18:46:33;;;;;;;18.95;11.05;;;;;;;-144.32;100.00;68061.97;10752509;22;20113;-80
2022/12/03 18:51:33;;;;;;;22.52;12.95;;;;;;;-144.32;100.00;68061.97;10526150;22;20056;-78
2022/12/03 18:56:34;;;;;;;20.85;11.88;;;;;;;-144.32;100.00;68061.97;10422085;28;20037;-86
2022/12/03 19:01:35;;;;;;;20.90;10.40;;;;;;;-144.32;100.00;68061.97;10445433;28;20052;-83
2022/12/03 19:06:35;;;;;;;21.52;11.90;;;;;;;-144.32;100.00;68061.97;10445886;28;20931;-80
2022/12/03 19:11:36;;;;;;;23.48;12.05;;;;;;;-144.32;100.00;68061.97;10446686;28;20036;-79
2022/12/03 19:16:39;;;;;;;23.65;10.90;;;;;;;-144.32;100.00;68061.97;10460239;28;20041;-79
2022/12/03 19:21:39;;;;;;;24.40;12.45;;;;;;;-144.32;100.00;68061.97;10467536;28;20115;-78
2022/12/03 19:26:40;;;;;;;23.15;13.00;;;;;;;-144.32;100.00;68061.97;10442173;28;20055;-81
2022/12/03 19:31:41;;;;;;;18.63;10.40;;;;;;;-144.32;100.00;68061.97;10422229;28;20120;-84
2022/12/03 19:36:44;;;;;;;20.20;10.80;;;;;;;-144.32;100.00;68061.97;10419041;28;20064;-86
2022/12/03 19:41:45;;;;;;;;;;;;;;;-144.32;100.00;68061.97;10446933;28;20469;-86
2022/12/03 19:46:48;;;;;;;20.00;10.82;;;;;;;-144.32;100.00;68061.97;10439078;28;19917;-85
2022/12/03 19:51:50;;;;;;;23.33;11.38;;;;;;;-144.32;100.00;68061.97;10415223;28;20084;-81
2022/12/03 19:56:51;;;;;;;20.30;11.27;;;;;;;-144.32;100.00;68061.97;10560445;22;20519;-85
2022/12/03 20:01:51;;;;;;;24.45;11.77;;;;;;;-144.32;100.00;68061.97;10509320;28;20056;-85
2022/12/03 20:06:52;;;;;;;18.75;10.48;;;;;;;-144.32;100.00;68061.97;10506292;28;20041;-87
2022/12/03 20:11:55;;;;;;;21.67;11.80;;;;;;;-144.32;100.00;68061.97;10492046;28;20032;-83
2022/12/03 20:16:55;;;;;;;17.67;10.57;;;;;;;-144.32;100.00;68061.97;10496282;28;20055;-83
2022/12/03 20:21:56;;;;;;;20.85;10.38;;;;;;;-144.32;100.00;68061.97;10536549;28;20021;-80
2022/12/03 20:26:57;;;;;;;22.17;11.90;;;;;;;-144.32;100.00;68061.97;10518597;28;20029;-80
2022/12/03 20:31:59;;;;;;;21.13;11.75;;;;;;;-144.32;100.00;68061.97;10533941;28;20028;-80
2022/12/03 20:36:59;;;;;;;22.58;11.52;;;;;;;-144.32;100.00;68061.97;10541238;28;20021;-82
2022/12/03 20:42:00;;;;;;;23.02;12.20;;;;;;;-144.32;100.00;68061.97;10536253;28;20092;-82
2022/12/03 20:47:01;;;;;;;25.40;12.35;;;;;;;-144.32;100.00;68061.97;10521543;28;20046;-80
2022/12/03 20:52:01;;;;;;;21.70;11.48;;;;;;;-144.32;100.00;68061.97;10536695;28;20032;-81
2022/12/03 20:57:02;;;;;;;22.85;11.60;;;;;;;-144.32;100.00;68061.97;10519497;28;20071;-84
2022/12/03 21:02:03;;;;;;;20.65;11.15;;;;;;;-144.32;100.00;68061.97;10525823;28;20040;-82
2022/12/03 21:07:04;;;;;;;18.90;10.98;;;;;;;-144.32;100.00;68061.97;10537621;28;20287;-81
2022/12/03 21:12:04;;;;;;;22.60;11.07;;;;;;;-144.32;100.00;68061.97;10515197;28;20060;-84
2022/12/03 21:17:05;;;;;;;24.52;14.45;;;;;;;-144.32;100.00;68061.97;10500106;28;20070;-82
2022/12/03 21:22:06;;;;;;;20.08;10.73;;;;;;;-144.32;100.00;68061.97;10521124;28;20038;-81
2022/12/03 21:27:06;;;;;;;24.20;12.43;;;;;;;-144.32;100.00;68061.97;10494099;28;20455;-80
2022/12/03 21:32:07;;;;;;;20.45;11.25;;;;;;;-144.32;100.00;68061.97;10521862;28;20182;-83
2022/12/03 21:37:08;;;;;;;21.23;11.63;;;;;;;-144.32;100.00;68061.97;10522331;28;20051;-78
2022/12/03 21:42:08;;;;;;;22.20;11.90;;;;;;;-144.32;100.00;68061.97;10526928;28;20308;-79
2022/12/03 21:52:34;;;;;;;20.92;11.20;;;;;;;-144.32;100.00;68061.97;10532425;22;20076;-88
2022/12/03 21:57:35;;;;;;;20.65;12.13;;;;;;;-144.32;100.00;68061.97;10485755;28;20500;-87
2022/12/03 22:02:38;;;;;;;22.02;11.75;;;;;;;-144.32;100.00;68061.97;10489849;28;20032;-81
2022/12/03 22:07:39;;;;;;;23.50;12.70;;;;;;;-144.32;100.00;68061.97;10611470;22;20036;-82
2022/12/03 22:12:40;;;;;;;21.45;11.45;;;;;;;-144.32;100.00;68061.97;10522144;28;20096;-80
2022/12/03 22:17:41;;;;;;;22.13;12.32;;;;;;;-144.32;100.00;68061.97;10508925;28;20045;-83
2022/12/03 22:22:41;;;;;;;22.10;12.60;;;;;;;-144.32;100.00;68061.97;10509526;28;20037;-81
2022/12/03 22:27:42;;;;;;;21.25;12.02;;;;;;;-144.32;100.00;68061.97;10513505;28;20048;-80
2022/12/03 22:32:42;;;;;;;21.52;11.93;;;;;;;-144.32;100.00;68061.97;10515329;28;20033;-81
2022/12/03 22:37:43;;;;;;;23.23;11.57;;;;;;;-144.32;100.00;68061.97;10498980;28;20037;-86
2022/12/03 22:42:43;;;;;;;20.70;10.85;;;;;;;-144.32;100.00;68061.97;10472668;28;20047;-82
2022/12/03 22:47:44;;;;;;;20.15;11.00;;;;;;;-144.32;100.00;68061.97;10474296;28;20051;-86
2022/12/03 22:52:44;;;;;;;19.55;11.27;;;;;;;-144.32;100.00;68061.97;10590956;22;20053;-81